Startpagina
METAR-TAF:

METAR-TAF

Vliegvelden :

Luchthaven Wilson

Nairobi, Kenia

breedte: 01-19S, lengte: 036-49E, hoogte: 1683 m

Actueel weer

Dit bericht is 6 uur en het 24 minuten geleden gemaakt, om 19:00 UTC
Weinig wind
Temperatuur 19°C
Vochtigheid 78%
Druk 1024 hPa
Zicht 10 km of meer
Gebroken wolken op 2100 ft

METAR: HKNW 161900Z 00000KT 9999 BKN021 19/15 Q1024

Tijdstip: 04:24 (01:24 UTC)


TAF: ontbreekt

Waarnemingen en weersverwachtingen van meer dan 4000 vliegvelden (METAR en TAF).

De beschikbare stations zijn de gele en rode punten op de kaart.

Ga met uw muis naar het station om de naam te zien.

Klik dan om waarnemingen en weersverwachtingen te zien.

kaart wijzigen: klik op de groene knoppen met een zwart kruis om in te zoomen, op de groene knop met een streepje om uit te zoomen of op de groene pijlen voor aangrenzende kaarten.


METAR-TAF: